sensor_id;sensor_type;location;lat;lon;timestamp;P1;durP1;ratioP1;P2;durP2;ratioP2
31768;SDS011;18342;52.132;21.048;2022-10-31T00:00:48;15.50;;;9.53;;
31768;SDS011;18342;52.132;21.048;2022-10-31T00:03:15;15.23;;;8.77;;
31768;SDS011;18342;52.132;21.048;2022-10-31T00:05:42;13.00;;;8.83;;
31768;SDS011;18342;52.132;21.048;2022-10-31T00:20:31;11.80;;;8.77;;
31768;SDS011;18342;52.132;21.048;2022-10-31T00:22:58;13.20;;;8.63;;
31768;SDS011;18342;52.132;21.048;2022-10-31T00:25:24;11.63;;;7.97;;
31768;SDS011;18342;52.132;21.048;2022-10-31T00:27:51;15.87;;;8.63;;
31768;SDS011;18342;52.132;21.048;2022-10-31T00:30:17;13.43;;;8.40;;
31768;SDS011;18342;52.132;21.048;2022-10-31T00:32:43;16.70;;;9.10;;
31768;SDS011;18342;52.132;21.048;2022-10-31T00:35:09;13.37;;;9.10;;
31768;SDS011;18342;52.132;21.048;2022-10-31T00:37:35;14.67;;;8.90;;
31768;SDS011;18342;52.132;21.048;2022-10-31T00:40:01;14.60;;;9.10;;
31768;SDS011;18342;52.132;21.048;2022-10-31T00:42:27;14.27;;;8.80;;
31768;SDS011;18342;52.132;21.048;2022-10-31T00:44:53;13.30;;;8.87;;
31768;SDS011;18342;52.132;21.048;2022-10-31T00:47:19;14.67;;;9.53;;
31768;SDS011;18342;52.132;21.048;2022-10-31T00:49:45;13.63;;;9.03;;
31768;SDS011;18342;52.132;21.048;2022-10-31T00:52:11;12.73;;;8.60;;
31768;SDS011;18342;52.132;21.048;2022-10-31T00:54:37;14.63;;;8.83;;
31768;SDS011;18342;52.132;21.048;2022-10-31T00:57:03;10.90;;;8.47;;
31768;SDS011;18342;52.132;21.048;2022-10-31T00:59:29;13.67;;;8.40;;
31768;SDS011;18342;52.132;21.048;2022-10-31T01:01:55;11.33;;;8.20;;
31768;SDS011;18342;52.132;21.048;2022-10-31T01:04:21;18.57;;;8.60;;
31768;SDS011;18342;52.132;21.048;2022-10-31T01:06:47;16.20;;;9.30;;
31768;SDS011;18342;52.132;21.048;2022-10-31T01:09:13;12.00;;;8.40;;
31768;SDS011;18342;52.132;21.048;2022-10-31T01:11:39;13.03;;;8.63;;
31768;SDS011;18342;52.132;21.048;2022-10-31T01:14:05;17.17;;;8.90;;
31768;SDS011;18342;52.132;21.048;2022-10-31T01:16:31;11.77;;;8.43;;
31768;SDS011;18342;52.132;21.048;2022-10-31T01:18:57;12.07;;;8.27;;
31768;SDS011;18342;52.132;21.048;2022-10-31T01:21:25;14.90;;;8.47;;
31768;SDS011;18342;52.132;21.048;2022-10-31T01:23:54;10.37;;;7.73;;
31768;SDS011;18342;52.132;21.048;2022-10-31T01:26:22;14.20;;;8.27;;
31768;SDS011;18342;52.132;21.048;2022-10-31T01:28:49;11.63;;;8.13;;
31768;SDS011;18342;52.132;21.048;2022-10-31T01:31:16;14.73;;;9.40;;
31768;SDS011;18342;52.132;21.048;2022-10-31T01:33:42;15.23;;;9.20;;
31768;SDS011;18342;52.132;21.048;2022-10-31T01:38:38;14.03;;;8.90;;
31768;SDS011;18342;52.132;21.048;2022-10-31T01:41:04;14.37;;;9.43;;
31768;SDS011;18342;52.132;21.048;2022-10-31T01:43:43;16.07;;;9.43;;
31768;SDS011;18342;52.132;21.048;2022-10-31T01:46:09;13.80;;;9.27;;
31768;SDS011;18342;52.132;21.048;2022-10-31T01:48:35;13.60;;;9.37;;
31768;SDS011;18342;52.132;21.048;2022-10-31T01:51:01;14.33;;;10.17;;
31768;SDS011;18342;52.132;21.048;2022-10-31T01:53:30;15.57;;;10.33;;
31768;SDS011;18342;52.132;21.048;2022-10-31T01:55:56;12.17;;;9.60;;
31768;SDS011;18342;52.132;21.048;2022-10-31T01:58:23;12.97;;;9.97;;
31768;SDS011;18342;52.132;21.048;2022-10-31T02:00:51;13.80;;;9.27;;
31768;SDS011;18342;52.132;21.048;2022-10-31T02:03:19;14.90;;;10.27;;
31768;SDS011;18342;52.132;21.048;2022-10-31T02:05:46;13.93;;;9.80;;
31768;SDS011;18342;52.132;21.048;2022-10-31T02:08:13;16.30;;;11.00;;
31768;SDS011;18342;52.132;21.048;2022-10-31T02:10:42;18.77;;;11.17;;
31768;SDS011;18342;52.132;21.048;2022-10-31T02:13:09;16.33;;;11.77;;
31768;SDS011;18342;52.132;21.048;2022-10-31T02:15:37;18.93;;;12.97;;
31768;SDS011;18342;52.132;21.048;2022-10-31T02:18:04;15.50;;;10.77;;
31768;SDS011;18342;52.132;21.048;2022-10-31T02:33:43;21.87;;;13.87;;
31768;SDS011;18342;52.132;21.048;2022-10-31T02:38:59;18.97;;;13.60;;
31768;SDS011;18342;52.132;21.048;2022-10-31T02:49:25;20.33;;;14.30;;
31768;SDS011;18342;52.132;21.048;2022-10-31T02:51:53;22.70;;;14.43;;
31768;SDS011;18342;52.132;21.048;2022-10-31T02:54:22;20.13;;;14.13;;
31768;SDS011;18342;52.132;21.048;2022-10-31T02:56:48;21.00;;;14.83;;
31768;SDS011;18342;52.132;21.048;2022-10-31T02:59:16;24.43;;;15.57;;
31768;SDS011;18342;52.132;21.048;2022-10-31T03:11:46;24.77;;;15.77;;
31768;SDS011;18342;52.132;21.048;2022-10-31T03:14:20;20.67;;;15.00;;
31768;SDS011;18342;52.132;21.048;2022-10-31T03:16:48;22.67;;;16.03;;
31768;SDS011;18342;52.132;21.048;2022-10-31T03:19:31;20.63;;;15.20;;
31768;SDS011;18342;52.132;21.048;2022-10-31T03:22:00;21.90;;;14.50;;
31768;SDS011;18342;52.132;21.048;2022-10-31T03:24:29;22.47;;;14.93;;
31768;SDS011;18342;52.132;21.048;2022-10-31T03:26:57;23.33;;;15.57;;
31768;SDS011;18342;52.132;21.048;2022-10-31T03:29:26;21.63;;;14.70;;
31768;SDS011;18342;52.132;21.048;2022-10-31T03:32:00;21.13;;;14.90;;
31768;SDS011;18342;52.132;21.048;2022-10-31T03:34:27;20.20;;;14.00;;
31768;SDS011;18342;52.132;21.048;2022-10-31T03:36:55;21.23;;;14.73;;
31768;SDS011;18342;52.132;21.048;2022-10-31T03:39:22;21.80;;;15.00;;
31768;SDS011;18342;52.132;21.048;2022-10-31T03:42:10;19.87;;;14.50;;
31768;SDS011;18342;52.132;21.048;2022-10-31T03:44:35;23.43;;;14.83;;
31768;SDS011;18342;52.132;21.048;2022-10-31T03:47:02;21.13;;;13.73;;
31768;SDS011;18342;52.132;21.048;2022-10-31T03:49:29;19.40;;;13.73;;
31768;SDS011;18342;52.132;21.048;2022-10-31T03:51:57;18.57;;;13.87;;
31768;SDS011;18342;52.132;21.048;2022-10-31T03:57:02;22.60;;;14.20;;
31768;SDS011;18342;52.132;21.048;2022-10-31T03:59:37;20.67;;;13.57;;
31768;SDS011;18342;52.132;21.048;2022-10-31T04:02:06;19.43;;;13.67;;
31768;SDS011;18342;52.132;21.048;2022-10-31T04:04:33;20.13;;;14.57;;
31768;SDS011;18342;52.132;21.048;2022-10-31T04:07:00;20.30;;;14.40;;
31768;SDS011;18342;52.132;21.048;2022-10-31T04:09:27;19.03;;;13.80;;
31768;SDS011;18342;52.132;21.048;2022-10-31T04:11:55;19.43;;;13.87;;
31768;SDS011;18342;52.132;21.048;2022-10-31T04:14:23;20.47;;;14.10;;
31768;SDS011;18342;52.132;21.048;2022-10-31T04:16:50;26.53;;;14.83;;
31768;SDS011;18342;52.132;21.048;2022-10-31T04:19:16;20.20;;;14.07;;
31768;SDS011;18342;52.132;21.048;2022-10-31T04:21:42;23.57;;;14.90;;
31768;SDS011;18342;52.132;21.048;2022-10-31T04:24:08;21.03;;;14.30;;
31768;SDS011;18342;52.132;21.048;2022-10-31T04:26:34;23.40;;;14.43;;
31768;SDS011;18342;52.132;21.048;2022-10-31T04:29:00;21.03;;;15.03;;
31768;SDS011;18342;52.132;21.048;2022-10-31T04:31:27;23.63;;;15.17;;
31768;SDS011;18342;52.132;21.048;2022-10-31T04:33:53;24.03;;;15.30;;
31768;SDS011;18342;52.132;21.048;2022-10-31T04:36:19;21.53;;;14.73;;
31768;SDS011;18342;52.132;21.048;2022-10-31T04:38:45;24.87;;;15.40;;
31768;SDS011;18342;52.132;21.048;2022-10-31T04:41:11;22.70;;;14.87;;
31768;SDS011;18342;52.132;21.048;2022-10-31T04:43:37;20.00;;;14.43;;
31768;SDS011;18342;52.132;21.048;2022-10-31T04:46:03;21.00;;;15.40;;
31768;SDS011;18342;52.132;21.048;2022-10-31T04:48:29;22.23;;;14.97;;
31768;SDS011;18342;52.132;21.048;2022-10-31T04:50:59;21.13;;;14.93;;
31768;SDS011;18342;52.132;21.048;2022-10-31T04:53:25;23.30;;;15.20;;
31768;SDS011;18342;52.132;21.048;2022-10-31T04:55:51;24.33;;;16.27;;
31768;SDS011;18342;52.132;21.048;2022-10-31T04:58:17;21.87;;;15.47;;
31768;SDS011;18342;52.132;21.048;2022-10-31T05:00:43;27.60;;;17.03;;
31768;SDS011;18342;52.132;21.048;2022-10-31T05:03:09;22.77;;;16.43;;
31768;SDS011;18342;52.132;21.048;2022-10-31T05:05:35;24.13;;;16.93;;
31768;SDS011;18342;52.132;21.048;2022-10-31T05:08:01;33.00;;;18.03;;
31768;SDS011;18342;52.132;21.048;2022-10-31T05:10:28;25.20;;;17.37;;
31768;SDS011;18342;52.132;21.048;2022-10-31T05:12:55;28.53;;;18.13;;
31768;SDS011;18342;52.132;21.048;2022-10-31T05:15:22;29.03;;;16.77;;
31768;SDS011;18342;52.132;21.048;2022-10-31T05:17:49;26.70;;;19.17;;
31768;SDS011;18342;52.132;21.048;2022-10-31T05:20:16;27.60;;;17.50;;
31768;SDS011;18342;52.132;21.048;2022-10-31T05:22:42;24.60;;;18.00;;
31768;SDS011;18342;52.132;21.048;2022-10-31T05:25:09;22.90;;;17.17;;
31768;SDS011;18342;52.132;21.048;2022-10-31T05:27:38;27.77;;;17.93;;
31768;SDS011;18342;52.132;21.048;2022-10-31T05:30:04;26.03;;;17.47;;
31768;SDS011;18342;52.132;21.048;2022-10-31T05:32:36;26.47;;;18.03;;
31768;SDS011;18342;52.132;21.048;2022-10-31T05:35:02;23.57;;;17.00;;
31768;SDS011;18342;52.132;21.048;2022-10-31T05:37:28;23.60;;;17.30;;
31768;SDS011;18342;52.132;21.048;2022-10-31T05:39:54;25.57;;;17.73;;
31768;SDS011;18342;52.132;21.048;2022-10-31T05:42:20;25.53;;;17.27;;
31768;SDS011;18342;52.132;21.048;2022-10-31T05:44:46;28.10;;;19.07;;
31768;SDS011;18342;52.132;21.048;2022-10-31T05:47:12;25.03;;;18.23;;
31768;SDS011;18342;52.132;21.048;2022-10-31T05:49:38;28.27;;;18.27;;
31768;SDS011;18342;52.132;21.048;2022-10-31T05:52:04;26.33;;;18.10;;
31768;SDS011;18342;52.132;21.048;2022-10-31T05:54:30;27.83;;;18.73;;
31768;SDS011;18342;52.132;21.048;2022-10-31T05:56:56;28.07;;;19.00;;
31768;SDS011;18342;52.132;21.048;2022-10-31T05:59:22;26.30;;;19.07;;
31768;SDS011;18342;52.132;21.048;2022-10-31T06:01:48;26.33;;;18.80;;
31768;SDS011;18342;52.132;21.048;2022-10-31T06:04:14;29.37;;;19.80;;
31768;SDS011;18342;52.132;21.048;2022-10-31T06:06:40;30.40;;;20.07;;
31768;SDS011;18342;52.132;21.048;2022-10-31T06:09:06;29.97;;;20.60;;
31768;SDS011;18342;52.132;21.048;2022-10-31T06:11:32;35.53;;;23.10;;
31768;SDS011;18342;52.132;21.048;2022-10-31T06:13:58;35.90;;;22.80;;
31768;SDS011;18342;52.132;21.048;2022-10-31T06:16:24;40.13;;;28.23;;
31768;SDS011;18342;52.132;21.048;2022-10-31T06:18:50;37.97;;;25.40;;
31768;SDS011;18342;52.132;21.048;2022-10-31T06:21:16;55.30;;;25.73;;
31768;SDS011;18342;52.132;21.048;2022-10-31T06:23:42;38.00;;;23.57;;
31768;SDS011;18342;52.132;21.048;2022-10-31T06:26:08;37.73;;;23.83;;
31768;SDS011;18342;52.132;21.048;2022-10-31T06:28:34;38.63;;;23.93;;
31768;SDS011;18342;52.132;21.048;2022-10-31T06:31:00;41.77;;;25.17;;
31768;SDS011;18342;52.132;21.048;2022-10-31T06:33:26;39.40;;;24.63;;
31768;SDS011;18342;52.132;21.048;2022-10-31T06:35:52;39.17;;;23.33;;
31768;SDS011;18342;52.132;21.048;2022-10-31T06:38:18;40.83;;;23.70;;
31768;SDS011;18342;52.132;21.048;2022-10-31T06:40:44;38.37;;;23.10;;
31768;SDS011;18342;52.132;21.048;2022-10-31T06:43:10;36.90;;;22.10;;
31768;SDS011;18342;52.132;21.048;2022-10-31T06:45:37;34.30;;;21.87;;
31768;SDS011;18342;52.132;21.048;2022-10-31T06:48:03;48.37;;;20.93;;
31768;SDS011;18342;52.132;21.048;2022-10-31T06:50:29;31.27;;;18.73;;
31768;SDS011;18342;52.132;21.048;2022-10-31T06:52:56;28.43;;;18.60;;
31768;SDS011;18342;52.132;21.048;2022-10-31T06:55:22;34.40;;;20.17;;
31768;SDS011;18342;52.132;21.048;2022-10-31T06:57:52;26.83;;;18.77;;
31768;SDS011;18342;52.132;21.048;2022-10-31T07:00:18;27.07;;;17.57;;
31768;SDS011;18342;52.132;21.048;2022-10-31T07:03:07;27.17;;;18.20;;
31768;SDS011;18342;52.132;21.048;2022-10-31T07:05:31;27.00;;;17.90;;
31768;SDS011;18342;52.132;21.048;2022-10-31T07:08:01;27.47;;;17.63;;
31768;SDS011;18342;52.132;21.048;2022-10-31T07:10:28;26.50;;;17.30;;
31768;SDS011;18342;52.132;21.048;2022-10-31T07:13:02;22.20;;;14.97;;
31768;SDS011;18342;52.132;21.048;2022-10-31T07:15:29;22.70;;;14.90;;
31768;SDS011;18342;52.132;21.048;2022-10-31T07:17:59;22.73;;;15.20;;
31768;SDS011;18342;52.132;21.048;2022-10-31T07:20:26;25.93;;;15.07;;
31768;SDS011;18342;52.132;21.048;2022-10-31T07:22:52;20.83;;;14.30;;
31768;SDS011;18342;52.132;21.048;2022-10-31T07:25:19;23.60;;;14.80;;
31768;SDS011;18342;52.132;21.048;2022-10-31T07:27:45;21.47;;;14.43;;
31768;SDS011;18342;52.132;21.048;2022-10-31T07:30:11;23.07;;;14.40;;
31768;SDS011;18342;52.132;21.048;2022-10-31T07:32:41;23.77;;;14.53;;
31768;SDS011;18342;52.132;21.048;2022-10-31T07:35:08;21.70;;;14.20;;
31768;SDS011;18342;52.132;21.048;2022-10-31T07:37:34;20.60;;;14.40;;
31768;SDS011;18342;52.132;21.048;2022-10-31T07:40:01;20.97;;;14.83;;
31768;SDS011;18342;52.132;21.048;2022-10-31T07:42:27;23.17;;;15.03;;
31768;SDS011;18342;52.132;21.048;2022-10-31T07:44:53;20.73;;;14.50;;
31768;SDS011;18342;52.132;21.048;2022-10-31T07:47:19;22.60;;;15.33;;
31768;SDS011;18342;52.132;21.048;2022-10-31T07:49:45;21.60;;;15.27;;
31768;SDS011;18342;52.132;21.048;2022-10-31T07:52:11;31.93;;;19.57;;
31768;SDS011;18342;52.132;21.048;2022-10-31T07:54:37;30.10;;;19.00;;
31768;SDS011;18342;52.132;21.048;2022-10-31T07:57:03;29.77;;;19.43;;
31768;SDS011;18342;52.132;21.048;2022-10-31T07:59:29;35.60;;;21.10;;
31768;SDS011;18342;52.132;21.048;2022-10-31T08:01:55;40.67;;;20.77;;
31768;SDS011;18342;52.132;21.048;2022-10-31T08:04:21;31.83;;;21.03;;
31768;SDS011;18342;52.132;21.048;2022-10-31T08:06:47;32.43;;;20.97;;
31768;SDS011;18342;52.132;21.048;2022-10-31T08:09:13;34.93;;;22.20;;
31768;SDS011;18342;52.132;21.048;2022-10-31T08:11:39;30.47;;;19.90;;
31768;SDS011;18342;52.132;21.048;2022-10-31T08:14:05;34.03;;;21.10;;
31768;SDS011;18342;52.132;21.048;2022-10-31T08:16:31;32.67;;;20.73;;
31768;SDS011;18342;52.132;21.048;2022-10-31T08:18:57;29.83;;;19.00;;
31768;SDS011;18342;52.132;21.048;2022-10-31T08:21:23;30.43;;;18.90;;
31768;SDS011;18342;52.132;21.048;2022-10-31T08:23:49;30.20;;;19.40;;
31768;SDS011;18342;52.132;21.048;2022-10-31T08:26:15;30.33;;;18.80;;
31768;SDS011;18342;52.132;21.048;2022-10-31T08:28:41;28.63;;;17.23;;
31768;SDS011;18342;52.132;21.048;2022-10-31T08:31:07;24.37;;;16.57;;
31768;SDS011;18342;52.132;21.048;2022-10-31T08:33:35;23.40;;;15.97;;
31768;SDS011;18342;52.132;21.048;2022-10-31T08:36:01;26.47;;;16.40;;
31768;SDS011;18342;52.132;21.048;2022-10-31T08:38:27;26.40;;;17.03;;
31768;SDS011;18342;52.132;21.048;2022-10-31T08:40:53;23.07;;;16.53;;
31768;SDS011;18342;52.132;21.048;2022-10-31T08:43:19;25.20;;;16.10;;
31768;SDS011;18342;52.132;21.048;2022-10-31T08:45:47;26.87;;;17.90;;
31768;SDS011;18342;52.132;21.048;2022-10-31T08:48:14;24.83;;;17.23;;
31768;SDS011;18342;52.132;21.048;2022-10-31T08:50:41;24.77;;;17.50;;
31768;SDS011;18342;52.132;21.048;2022-10-31T08:53:09;29.00;;;18.83;;
31768;SDS011;18342;52.132;21.048;2022-10-31T08:55:35;26.87;;;18.23;;
31768;SDS011;18342;52.132;21.048;2022-10-31T08:58:02;29.03;;;19.37;;
31768;SDS011;18342;52.132;21.048;2022-10-31T09:00:29;26.83;;;18.77;;
31768;SDS011;18342;52.132;21.048;2022-10-31T09:02:58;32.70;;;20.33;;
31768;SDS011;18342;52.132;21.048;2022-10-31T09:05:25;30.63;;;19.73;;
31768;SDS011;18342;52.132;21.048;2022-10-31T09:07:51;31.30;;;19.63;;
31768;SDS011;18342;52.132;21.048;2022-10-31T09:10:17;31.90;;;20.90;;
31768;SDS011;18342;52.132;21.048;2022-10-31T09:12:43;31.43;;;19.90;;
31768;SDS011;18342;52.132;21.048;2022-10-31T09:15:09;31.67;;;20.40;;
31768;SDS011;18342;52.132;21.048;2022-10-31T09:17:35;31.30;;;21.60;;
31768;SDS011;18342;52.132;21.048;2022-10-31T09:20:01;30.60;;;21.50;;
31768;SDS011;18342;52.132;21.048;2022-10-31T09:22:27;32.10;;;21.77;;
31768;SDS011;18342;52.132;21.048;2022-10-31T09:24:53;32.53;;;22.37;;
31768;SDS011;18342;52.132;21.048;2022-10-31T09:27:19;33.17;;;21.70;;
31768;SDS011;18342;52.132;21.048;2022-10-31T09:29:45;37.47;;;23.53;;
31768;SDS011;18342;52.132;21.048;2022-10-31T09:32:11;34.27;;;22.20;;
31768;SDS011;18342;52.132;21.048;2022-10-31T09:34:37;31.97;;;21.73;;
31768;SDS011;18342;52.132;21.048;2022-10-31T09:37:03;32.33;;;22.40;;
31768;SDS011;18342;52.132;21.048;2022-10-31T09:39:29;36.43;;;24.43;;
31768;SDS011;18342;52.132;21.048;2022-10-31T09:42:04;31.83;;;21.03;;
31768;SDS011;18342;52.132;21.048;2022-10-31T09:47:09;33.80;;;22.93;;
31768;SDS011;18342;52.132;21.048;2022-10-31T09:50:12;30.73;;;22.00;;
31768;SDS011;18342;52.132;21.048;2022-10-31T09:52:33;29.23;;;21.03;;
31768;SDS011;18342;52.132;21.048;2022-10-31T09:57:29;30.10;;;20.97;;
31768;SDS011;18342;52.132;21.048;2022-10-31T09:59:56;30.60;;;20.80;;
31768;SDS011;18342;52.132;21.048;2022-10-31T10:02:46;29.87;;;20.07;;
31768;SDS011;18342;52.132;21.048;2022-10-31T10:05:11;31.13;;;19.97;;
31768;SDS011;18342;52.132;21.048;2022-10-31T10:17:57;28.30;;;18.80;;
31768;SDS011;18342;52.132;21.048;2022-10-31T10:33:14;23.67;;;17.77;;
31768;SDS011;18342;52.132;21.048;2022-10-31T10:38:20;24.10;;;16.03;;
31768;SDS011;18342;52.132;21.048;2022-10-31T10:40:48;21.90;;;16.53;;
31768;SDS011;18342;52.132;21.048;2022-10-31T10:43:26;22.87;;;15.73;;
31768;SDS011;18342;52.132;21.048;2022-10-31T10:45:59;20.90;;;16.10;;
31768;SDS011;18342;52.132;21.048;2022-10-31T10:59:11;24.93;;;16.60;;
31768;SDS011;18342;52.132;21.048;2022-10-31T11:01:38;25.30;;;16.47;;
31768;SDS011;18342;52.132;21.048;2022-10-31T11:04:22;25.90;;;15.97;;
31768;SDS011;18342;52.132;21.048;2022-10-31T11:06:56;24.97;;;16.23;;
31768;SDS011;18342;52.132;21.048;2022-10-31T11:09:22;28.80;;;20.15;;
31768;SDS011;18342;52.132;21.048;2022-10-31T11:11:48;24.67;;;17.77;;
31768;SDS011;18342;52.132;21.048;2022-10-31T11:14:15;26.67;;;18.43;;
31768;SDS011;18342;52.132;21.048;2022-10-31T11:16:43;28.43;;;19.77;;
31768;SDS011;18342;52.132;21.048;2022-10-31T11:19:20;27.00;;;18.43;;
31768;SDS011;18342;52.132;21.048;2022-10-31T11:21:47;27.67;;;18.53;;
31768;SDS011;18342;52.132;21.048;2022-10-31T11:24:14;26.43;;;18.27;;
31768;SDS011;18342;52.132;21.048;2022-10-31T11:26:41;29.90;;;18.70;;
31768;SDS011;18342;52.132;21.048;2022-10-31T11:29:15;27.30;;;18.23;;
31768;SDS011;18342;52.132;21.048;2022-10-31T11:31:41;24.20;;;17.13;;
31768;SDS011;18342;52.132;21.048;2022-10-31T11:36:53;29.93;;;18.87;;
31768;SDS011;18342;52.132;21.048;2022-10-31T11:39:21;29.83;;;18.40;;
31768;SDS011;18342;52.132;21.048;2022-10-31T11:41:47;31.20;;;18.40;;
31768;SDS011;18342;52.132;21.048;2022-10-31T11:44:15;26.20;;;18.30;;
31768;SDS011;18342;52.132;21.048;2022-10-31T11:46:49;26.63;;;17.93;;
31768;SDS011;18342;52.132;21.048;2022-10-31T11:49:20;26.37;;;18.27;;
31768;SDS011;18342;52.132;21.048;2022-10-31T11:51:51;25.30;;;17.77;;
31768;SDS011;18342;52.132;21.048;2022-10-31T11:54:20;31.47;;;19.70;;
31768;SDS011;18342;52.132;21.048;2022-10-31T11:56:46;24.60;;;17.60;;
31768;SDS011;18342;52.132;21.048;2022-10-31T11:59:33;25.23;;;16.87;;
31768;SDS011;18342;52.132;21.048;2022-10-31T12:02:00;28.03;;;18.43;;
31768;SDS011;18342;52.132;21.048;2022-10-31T12:04:31;30.27;;;19.13;;
31768;SDS011;18342;52.132;21.048;2022-10-31T12:06:58;26.83;;;18.57;;
31768;SDS011;18342;52.132;21.048;2022-10-31T12:09:32;26.33;;;18.07;;
31768;SDS011;18342;52.132;21.048;2022-10-31T12:15:07;30.53;;;19.07;;
31768;SDS011;18342;52.132;21.048;2022-10-31T12:22:36;35.50;;;18.50;;
31768;SDS011;18342;52.132;21.048;2022-10-31T12:30:20;27.27;;;17.37;;
31768;SDS011;18342;52.132;21.048;2022-10-31T12:45:59;27.53;;;15.77;;
31768;SDS011;18342;52.132;21.048;2022-10-31T12:50:57;23.50;;;16.13;;
31768;SDS011;18342;52.132;21.048;2022-10-31T13:00:58;28.70;;;16.73;;
31768;SDS011;18342;52.132;21.048;2022-10-31T13:03:30;24.43;;;16.37;;
31768;SDS011;18342;52.132;21.048;2022-10-31T13:05:59;23.10;;;15.30;;
31768;SDS011;18342;52.132;21.048;2022-10-31T13:08:30;24.27;;;16.07;;
31768;SDS011;18342;52.132;21.048;2022-10-31T13:18:35;21.27;;;15.37;;
31768;SDS011;18342;52.132;21.048;2022-10-31T13:21:05;24.73;;;16.73;;
31768;SDS011;18342;52.132;21.048;2022-10-31T13:23:35;23.37;;;15.97;;
31768;SDS011;18342;52.132;21.048;2022-10-31T13:26:06;26.27;;;16.40;;
31768;SDS011;18342;52.132;21.048;2022-10-31T13:28:35;20.37;;;15.10;;
31768;SDS011;18342;52.132;21.048;2022-10-31T13:31:02;22.93;;;15.20;;
31768;SDS011;18342;52.132;21.048;2022-10-31T13:34:03;30.33;;;16.27;;
31768;SDS011;18342;52.132;21.048;2022-10-31T13:42:34;31.90;;;20.80;;
31768;SDS011;18342;52.132;21.048;2022-10-31T13:44:39;38.60;;;20.00;;
31768;SDS011;18342;52.132;21.048;2022-10-31T13:49:49;29.33;;;20.80;;
31768;SDS011;18342;52.132;21.048;2022-10-31T13:52:21;31.77;;;21.77;;
31768;SDS011;18342;52.132;21.048;2022-10-31T13:54:49;29.77;;;21.13;;
31768;SDS011;18342;52.132;21.048;2022-10-31T13:57:25;27.90;;;20.23;;
31768;SDS011;18342;52.132;21.048;2022-10-31T13:59:58;31.03;;;19.80;;
31768;SDS011;18342;52.132;21.048;2022-10-31T14:02:26;30.13;;;20.30;;
31768;SDS011;18342;52.132;21.048;2022-10-31T14:05:06;29.77;;;20.43;;
31768;SDS011;18342;52.132;21.048;2022-10-31T14:07:45;28.83;;;19.90;;
31768;SDS011;18342;52.132;21.048;2022-10-31T14:12:53;33.20;;;22.57;;
31768;SDS011;18342;52.132;21.048;2022-10-31T14:15:24;28.93;;;20.10;;
31768;SDS011;18342;52.132;21.048;2022-10-31T14:17:52;31.83;;;21.57;;
31768;SDS011;18342;52.132;21.048;2022-10-31T14:22:45;32.43;;;22.27;;
31768;SDS011;18342;52.132;21.048;2022-10-31T14:28:20;29.07;;;21.20;;
31768;SDS011;18342;52.132;21.048;2022-10-31T14:30:57;33.73;;;21.17;;
31768;SDS011;18342;52.132;21.048;2022-10-31T14:33:24;34.80;;;21.80;;
31768;SDS011;18342;52.132;21.048;2022-10-31T14:35:56;36.40;;;22.37;;
31768;SDS011;18342;52.132;21.048;2022-10-31T14:41:52;34.33;;;20.63;;
31768;SDS011;18342;52.132;21.048;2022-10-31T14:46:38;32.53;;;21.80;;
31768;SDS011;18342;52.132;21.048;2022-10-31T14:51:50;37.87;;;23.13;;
31768;SDS011;18342;52.132;21.048;2022-10-31T14:54:19;38.93;;;22.23;;
31768;SDS011;18342;52.132;21.048;2022-10-31T14:56:49;37.53;;;22.27;;
31768;SDS011;18342;52.132;21.048;2022-10-31T14:59:17;43.13;;;23.90;;
31768;SDS011;18342;52.132;21.048;2022-10-31T15:02:00;45.70;;;25.00;;
31768;SDS011;18342;52.132;21.048;2022-10-31T15:04:28;41.37;;;23.93;;
31768;SDS011;18342;52.132;21.048;2022-10-31T15:06:59;41.60;;;23.83;;
31768;SDS011;18342;52.132;21.048;2022-10-31T15:09:27;41.07;;;23.10;;
31768;SDS011;18342;52.132;21.048;2022-10-31T15:11:53;44.93;;;25.77;;
31768;SDS011;18342;52.132;21.048;2022-10-31T15:14:23;43.73;;;24.53;;
31768;SDS011;18342;52.132;21.048;2022-10-31T15:16:50;41.93;;;25.93;;
31768;SDS011;18342;52.132;21.048;2022-10-31T15:19:19;43.30;;;24.67;;
31768;SDS011;18342;52.132;21.048;2022-10-31T15:21:46;38.23;;;23.50;;
31768;SDS011;18342;52.132;21.048;2022-10-31T15:24:13;44.80;;;25.37;;
31768;SDS011;18342;52.132;21.048;2022-10-31T15:26:50;43.77;;;25.43;;
31768;SDS011;18342;52.132;21.048;2022-10-31T15:29:21;40.53;;;23.33;;
31768;SDS011;18342;52.132;21.048;2022-10-31T15:34:38;45.93;;;25.87;;
31768;SDS011;18342;52.132;21.048;2022-10-31T15:37:07;47.90;;;27.40;;
31768;SDS011;18342;52.132;21.048;2022-10-31T15:39:35;47.63;;;26.00;;
31768;SDS011;18342;52.132;21.048;2022-10-31T15:42:01;49.40;;;27.93;;
31768;SDS011;18342;52.132;21.048;2022-10-31T15:44:34;43.83;;;25.87;;
31768;SDS011;18342;52.132;21.048;2022-10-31T15:47:05;45.17;;;25.53;;
31768;SDS011;18342;52.132;21.048;2022-10-31T15:49:36;41.00;;;24.60;;
31768;SDS011;18342;52.132;21.048;2022-10-31T15:52:06;48.87;;;27.37;;
31768;SDS011;18342;52.132;21.048;2022-10-31T15:54:35;50.07;;;27.33;;
31768;SDS011;18342;52.132;21.048;2022-10-31T15:57:01;44.70;;;26.33;;
31768;SDS011;18342;52.132;21.048;2022-10-31T15:59:27;47.50;;;27.20;;
31768;SDS011;18342;52.132;21.048;2022-10-31T16:01:58;47.53;;;27.43;;
31768;SDS011;18342;52.132;21.048;2022-10-31T16:04:24;48.93;;;26.77;;
31768;SDS011;18342;52.132;21.048;2022-10-31T16:07:01;50.13;;;28.50;;
31768;SDS011;18342;52.132;21.048;2022-10-31T16:09:27;52.13;;;27.43;;
31768;SDS011;18342;52.132;21.048;2022-10-31T16:11:54;57.60;;;29.10;;
31768;SDS011;18342;52.132;21.048;2022-10-31T16:14:22;55.60;;;28.17;;
31768;SDS011;18342;52.132;21.048;2022-10-31T16:16:50;52.07;;;27.73;;
31768;SDS011;18342;52.132;21.048;2022-10-31T16:19:20;55.83;;;29.07;;
31768;SDS011;18342;52.132;21.048;2022-10-31T16:21:47;59.55;;;33.67;;
31768;SDS011;18342;52.132;21.048;2022-10-31T16:26:50;65.27;;;31.10;;
31768;SDS011;18342;52.132;21.048;2022-10-31T16:29:27;63.00;;;30.80;;
31768;SDS011;18342;52.132;21.048;2022-10-31T16:31:54;58.97;;;29.07;;
31768;SDS011;18342;52.132;21.048;2022-10-31T16:34:21;60.07;;;29.57;;
31768;SDS011;18342;52.132;21.048;2022-10-31T16:36:47;71.33;;;31.47;;
31768;SDS011;18342;52.132;21.048;2022-10-31T16:39:13;71.47;;;33.53;;
31768;SDS011;18342;52.132;21.048;2022-10-31T16:41:43;70.87;;;32.70;;
31768;SDS011;18342;52.132;21.048;2022-10-31T16:44:23;74.80;;;33.20;;
31768;SDS011;18342;52.132;21.048;2022-10-31T16:47:06;69.17;;;31.27;;
31768;SDS011;18342;52.132;21.048;2022-10-31T16:49:33;74.67;;;33.23;;
31768;SDS011;18342;52.132;21.048;2022-10-31T16:51:59;74.70;;;34.27;;
31768;SDS011;18342;52.132;21.048;2022-10-31T16:54:25;78.07;;;33.07;;
31768;SDS011;18342;52.132;21.048;2022-10-31T16:56:51;74.77;;;32.73;;
31768;SDS011;18342;52.132;21.048;2022-10-31T16:59:17;83.03;;;33.90;;
31768;SDS011;18342;52.132;21.048;2022-10-31T17:01:43;76.00;;;32.63;;
31768;SDS011;18342;52.132;21.048;2022-10-31T17:04:13;79.87;;;34.93;;
31768;SDS011;18342;52.132;21.048;2022-10-31T17:06:40;80.50;;;34.10;;